Eagle Point, Vermont
Current Conditions -  °F | °C
As of 4:35 AM on Thursday 18 Dec 2014 (Local Time) from KEFK Reporting Station
Light Snow Light Snow  
Wind Chill: 31°   Ceiling: 1100
Heat Index: 31°   Visibility: 2.5mi
Dew Point: 29°   Wind: 0mph
Humidity: 93%   Direction: NA
Pressure: 29.7"   Gusts: NA
Location:  44.9201°N, 72.2004°W
Report Text: KEFK 180935Z AUTO 00000KT 2 1/2SM -SN SCT007 BKN011 OVC017 00/M01 A2970 RMK AO2 T10041014
Loading
Personal Weather Stations






























Interactive Weather Map New forecast layout! Learn more

10-Day Weather Forecast

Advertisements
Track Severe Weather on mobile